sensor_id;sensor_type;location;lat;lon;timestamp;P1;durP1;ratioP1;P2;durP2;ratioP2
75766;SDS011;64378;55.596;13.014;2023-04-15T00:02:21;9.73;;;4.80;;
75766;SDS011;64378;55.596;13.014;2023-04-15T00:04:47;9.57;;;4.70;;
75766;SDS011;64378;55.596;13.014;2023-04-15T00:07:12;11.80;;;4.70;;
75766;SDS011;64378;55.596;13.014;2023-04-15T00:09:39;9.10;;;5.18;;
75766;SDS011;64378;55.596;13.014;2023-04-15T00:12:05;9.68;;;4.80;;
75766;SDS011;64378;55.596;13.014;2023-04-15T00:14:32;9.32;;;4.30;;
75766;SDS011;64378;55.596;13.014;2023-04-15T00:16:58;8.98;;;4.38;;
75766;SDS011;64378;55.596;13.014;2023-04-15T00:19:24;8.83;;;4.30;;
75766;SDS011;64378;55.596;13.014;2023-04-15T00:21:49;9.57;;;5.00;;
75766;SDS011;64378;55.596;13.014;2023-04-15T00:24:15;9.43;;;4.43;;
75766;SDS011;64378;55.596;13.014;2023-04-15T00:26:41;9.30;;;4.60;;
75766;SDS011;64378;55.596;13.014;2023-04-15T00:29:06;9.17;;;4.50;;
75766;SDS011;64378;55.596;13.014;2023-04-15T00:31:32;9.18;;;4.60;;
75766;SDS011;64378;55.596;13.014;2023-04-15T00:33:57;9.30;;;4.20;;
75766;SDS011;64378;55.596;13.014;2023-04-15T00:36:23;9.77;;;4.60;;
75766;SDS011;64378;55.596;13.014;2023-04-15T00:38:50;8.65;;;4.38;;
75766;SDS011;64378;55.596;13.014;2023-04-15T00:41:15;8.60;;;4.30;;
75766;SDS011;64378;55.596;13.014;2023-04-15T00:43:43;8.87;;;4.33;;
75766;SDS011;64378;55.596;13.014;2023-04-15T00:46:08;9.27;;;4.38;;
75766;SDS011;64378;55.596;13.014;2023-04-15T00:48:36;9.33;;;4.57;;
75766;SDS011;64378;55.596;13.014;2023-04-15T00:51:03;8.47;;;4.20;;
75766;SDS011;64378;55.596;13.014;2023-04-15T00:53:28;9.55;;;4.30;;
75766;SDS011;64378;55.596;13.014;2023-04-15T00:55:54;8.83;;;4.20;;
75766;SDS011;64378;55.596;13.014;2023-04-15T00:58:20;8.40;;;4.15;;
75766;SDS011;64378;55.596;13.014;2023-04-15T01:00:45;9.37;;;4.23;;
75766;SDS011;64378;55.596;13.014;2023-04-15T01:03:11;9.30;;;4.28;;
75766;SDS011;64378;55.596;13.014;2023-04-15T01:05:38;8.70;;;3.97;;
75766;SDS011;64378;55.596;13.014;2023-04-15T01:08:04;8.23;;;3.80;;
75766;SDS011;64378;55.596;13.014;2023-04-15T01:10:30;8.95;;;3.88;;
75766;SDS011;64378;55.596;13.014;2023-04-15T01:12:56;9.00;;;3.70;;
75766;SDS011;64378;55.596;13.014;2023-04-15T01:15:21;9.00;;;4.10;;
75766;SDS011;64378;55.596;13.014;2023-04-15T01:17:48;10.38;;;3.83;;
75766;SDS011;64378;55.596;13.014;2023-04-15T01:20:13;10.85;;;4.65;;
75766;SDS011;64378;55.596;13.014;2023-04-15T01:22:40;233.27;;;127.03;;
75766;SDS011;64378;55.596;13.014;2023-04-15T01:25:08;344.40;;;163.33;;
75766;SDS011;64378;55.596;13.014;2023-04-15T01:27:38;305.97;;;149.77;;
75766;SDS011;64378;55.596;13.014;2023-04-15T01:30:05;281.70;;;142.55;;
75766;SDS011;64378;55.596;13.014;2023-04-15T01:32:31;257.43;;;133.00;;
75766;SDS011;64378;55.596;13.014;2023-04-15T01:34:57;245.60;;;130.40;;
75766;SDS011;64378;55.596;13.014;2023-04-15T01:37:23;164.32;;;101.97;;
75766;SDS011;64378;55.596;13.014;2023-04-15T01:39:48;66.97;;;59.77;;
75766;SDS011;64378;55.596;13.014;2023-04-15T01:42:14;36.22;;;33.55;;
75766;SDS011;64378;55.596;13.014;2023-04-15T01:44:39;11.32;;;8.73;;
75766;SDS011;64378;55.596;13.014;2023-04-15T01:47:05;51.63;;;47.17;;
75766;SDS011;64378;55.596;13.014;2023-04-15T01:49:30;41.50;;;38.30;;
75766;SDS011;64378;55.596;13.014;2023-04-15T01:51:56;49.72;;;45.60;;
75766;SDS011;64378;55.596;13.014;2023-04-15T01:54:22;48.23;;;44.17;;
75766;SDS011;64378;55.596;13.014;2023-04-15T01:56:47;52.40;;;47.83;;
75766;SDS011;64378;55.596;13.014;2023-04-15T01:59:12;53.00;;;48.40;;
75766;SDS011;64378;55.596;13.014;2023-04-15T02:01:38;59.60;;;53.90;;
75766;SDS011;64378;55.596;13.014;2023-04-15T02:04:03;55.87;;;50.77;;
75766;SDS011;64378;55.596;13.014;2023-04-15T02:06:29;46.22;;;42.50;;
75766;SDS011;64378;55.596;13.014;2023-04-15T02:08:54;35.60;;;33.00;;
75766;SDS011;64378;55.596;13.014;2023-04-15T02:11:20;21.90;;;19.97;;
75766;SDS011;64378;55.596;13.014;2023-04-15T02:13:45;9.70;;;5.00;;
75766;SDS011;64378;55.596;13.014;2023-04-15T02:16:14;11.20;;;4.93;;
75766;SDS011;64378;55.596;13.014;2023-04-15T02:18:44;9.70;;;4.50;;
75766;SDS011;64378;55.596;13.014;2023-04-15T02:21:10;13.80;;;5.30;;
75766;SDS011;64378;55.596;13.014;2023-04-15T02:23:36;9.88;;;4.68;;
75766;SDS011;64378;55.596;13.014;2023-04-15T02:26:01;9.33;;;4.23;;
75766;SDS011;64378;55.596;13.014;2023-04-15T02:28:27;8.63;;;4.33;;
75766;SDS011;64378;55.596;13.014;2023-04-15T02:30:52;10.50;;;4.80;;
75766;SDS011;64378;55.596;13.014;2023-04-15T02:33:20;9.77;;;4.85;;
75766;SDS011;64378;55.596;13.014;2023-04-15T02:35:45;9.95;;;4.75;;
75766;SDS011;64378;55.596;13.014;2023-04-15T02:38:11;9.60;;;5.17;;
75766;SDS011;64378;55.596;13.014;2023-04-15T02:40:38;9.00;;;4.30;;
75766;SDS011;64378;55.596;13.014;2023-04-15T02:43:03;9.33;;;6.03;;
75766;SDS011;64378;55.596;13.014;2023-04-15T02:45:30;12.30;;;8.75;;
75766;SDS011;64378;55.596;13.014;2023-04-15T02:47:56;11.03;;;4.57;;
75766;SDS011;64378;55.596;13.014;2023-04-15T02:50:23;10.23;;;4.50;;
75766;SDS011;64378;55.596;13.014;2023-04-15T02:52:49;8.73;;;4.25;;
75766;SDS011;64378;55.596;13.014;2023-04-15T02:55:16;9.43;;;4.70;;
75766;SDS011;64378;55.596;13.014;2023-04-15T02:57:42;10.43;;;4.95;;
75766;SDS011;64378;55.596;13.014;2023-04-15T03:00:07;9.07;;;4.40;;
75766;SDS011;64378;55.596;13.014;2023-04-15T03:02:36;9.37;;;4.13;;
75766;SDS011;64378;55.596;13.014;2023-04-15T03:05:02;10.48;;;4.80;;
75766;SDS011;64378;55.596;13.014;2023-04-15T03:07:28;11.15;;;4.60;;
75766;SDS011;64378;55.596;13.014;2023-04-15T03:09:54;9.13;;;4.40;;
75766;SDS011;64378;55.596;13.014;2023-04-15T03:12:19;11.37;;;10.17;;
75766;SDS011;64378;55.596;13.014;2023-04-15T03:14:45;11.43;;;5.07;;
75766;SDS011;64378;55.596;13.014;2023-04-15T03:17:10;9.77;;;4.80;;
75766;SDS011;64378;55.596;13.014;2023-04-15T03:19:36;9.63;;;5.77;;
75766;SDS011;64378;55.596;13.014;2023-04-15T03:22:01;9.57;;;4.87;;
75766;SDS011;64378;55.596;13.014;2023-04-15T03:24:26;9.97;;;4.67;;
75766;SDS011;64378;55.596;13.014;2023-04-15T03:26:53;28.10;;;25.85;;
75766;SDS011;64378;55.596;13.014;2023-04-15T03:29:19;9.80;;;5.13;;
75766;SDS011;64378;55.596;13.014;2023-04-15T03:31:44;9.27;;;4.80;;
75766;SDS011;64378;55.596;13.014;2023-04-15T03:34:10;10.27;;;5.20;;
75766;SDS011;64378;55.596;13.014;2023-04-15T03:36:35;9.80;;;5.57;;
75766;SDS011;64378;55.596;13.014;2023-04-15T03:39:01;15.90;;;13.30;;
75766;SDS011;64378;55.596;13.014;2023-04-15T03:41:27;10.57;;;5.90;;
75766;SDS011;64378;55.596;13.014;2023-04-15T03:43:53;51.47;;;46.95;;
75766;SDS011;64378;55.596;13.014;2023-04-15T03:46:18;33.90;;;30.60;;
75766;SDS011;64378;55.596;13.014;2023-04-15T03:48:44;24.73;;;22.70;;
75766;SDS011;64378;55.596;13.014;2023-04-15T03:51:09;34.93;;;32.17;;
75766;SDS011;64378;55.596;13.014;2023-04-15T03:53:35;56.40;;;51.35;;
75766;SDS011;64378;55.596;13.014;2023-04-15T03:56:01;11.38;;;6.95;;
75766;SDS011;64378;55.596;13.014;2023-04-15T03:58:26;49.20;;;44.43;;
75766;SDS011;64378;55.596;13.014;2023-04-15T04:00:51;44.03;;;40.10;;
75766;SDS011;64378;55.596;13.014;2023-04-15T04:03:17;26.53;;;24.43;;
75766;SDS011;64378;55.596;13.014;2023-04-15T04:05:42;57.27;;;51.23;;
75766;SDS011;64378;55.596;13.014;2023-04-15T04:08:08;52.17;;;47.50;;
75766;SDS011;64378;55.596;13.014;2023-04-15T04:10:34;40.63;;;37.33;;
75766;SDS011;64378;55.596;13.014;2023-04-15T04:12:59;25.73;;;23.27;;
75766;SDS011;64378;55.596;13.014;2023-04-15T04:15:25;83.10;;;64.22;;
75766;SDS011;64378;55.596;13.014;2023-04-15T04:17:51;10.90;;;6.97;;
75766;SDS011;64378;55.596;13.014;2023-04-15T04:20:16;35.88;;;32.97;;
75766;SDS011;64378;55.596;13.014;2023-04-15T04:22:42;23.83;;;21.93;;
75766;SDS011;64378;55.596;13.014;2023-04-15T04:25:08;62.53;;;56.47;;
75766;SDS011;64378;55.596;13.014;2023-04-15T04:27:34;56.53;;;51.42;;
75766;SDS011;64378;55.596;13.014;2023-04-15T04:30:00;82.47;;;63.38;;
75766;SDS011;64378;55.596;13.014;2023-04-15T04:32:26;16.40;;;11.90;;
75766;SDS011;64378;55.596;13.014;2023-04-15T04:34:52;126.32;;;86.07;;
75766;SDS011;64378;55.596;13.014;2023-04-15T04:37:17;72.87;;;61.33;;
75766;SDS011;64378;55.596;13.014;2023-04-15T04:39:43;137.10;;;91.90;;
75766;SDS011;64378;55.596;13.014;2023-04-15T04:42:08;63.73;;;57.50;;
75766;SDS011;64378;55.596;13.014;2023-04-15T04:44:33;134.87;;;91.30;;
75766;SDS011;64378;55.596;13.014;2023-04-15T04:46:59;169.30;;;101.77;;
75766;SDS011;64378;55.596;13.014;2023-04-15T04:49:24;72.50;;;64.80;;
75766;SDS011;64378;55.596;13.014;2023-04-15T04:51:50;30.47;;;28.03;;
75766;SDS011;64378;55.596;13.014;2023-04-15T04:54:16;91.22;;;70.47;;
75766;SDS011;64378;55.596;13.014;2023-04-15T04:56:41;109.23;;;81.13;;
75766;SDS011;64378;55.596;13.014;2023-04-15T04:59:07;24.97;;;22.40;;
75766;SDS011;64378;55.596;13.014;2023-04-15T05:01:32;78.30;;;63.67;;
75766;SDS011;64378;55.596;13.014;2023-04-15T05:03:58;49.75;;;45.58;;
75766;SDS011;64378;55.596;13.014;2023-04-15T05:06:24;128.98;;;89.13;;
75766;SDS011;64378;55.596;13.014;2023-04-15T05:08:50;74.77;;;65.43;;
75766;SDS011;64378;55.596;13.014;2023-04-15T05:11:15;73.85;;;65.75;;
75766;SDS011;64378;55.596;13.014;2023-04-15T05:13:41;98.18;;;77.65;;
75766;SDS011;64378;55.596;13.014;2023-04-15T05:16:06;65.40;;;58.57;;
75766;SDS011;64378;55.596;13.014;2023-04-15T05:18:32;11.60;;;6.40;;
75766;SDS011;64378;55.596;13.014;2023-04-15T05:20:58;72.18;;;62.40;;
75766;SDS011;64378;55.596;13.014;2023-04-15T05:23:24;35.90;;;32.07;;
75766;SDS011;64378;55.596;13.014;2023-04-15T05:25:49;81.73;;;69.97;;
75766;SDS011;64378;55.596;13.014;2023-04-15T05:28:15;76.40;;;65.43;;
75766;SDS011;64378;55.596;13.014;2023-04-15T05:30:40;49.20;;;35.47;;
75766;SDS011;64378;55.596;13.014;2023-04-15T05:33:06;10.95;;;6.35;;
75766;SDS011;64378;55.596;13.014;2023-04-15T05:35:31;11.10;;;6.00;;
75766;SDS011;64378;55.596;13.014;2023-04-15T05:37:57;10.33;;;5.97;;
75766;SDS011;64378;55.596;13.014;2023-04-15T05:40:22;14.00;;;6.03;;
75766;SDS011;64378;55.596;13.014;2023-04-15T05:42:48;11.07;;;5.90;;
75766;SDS011;64378;55.596;13.014;2023-04-15T05:45:13;11.10;;;5.63;;
75766;SDS011;64378;55.596;13.014;2023-04-15T05:47:39;11.98;;;6.28;;
75766;SDS011;64378;55.596;13.014;2023-04-15T05:50:04;11.15;;;5.50;;
75766;SDS011;64378;55.596;13.014;2023-04-15T05:52:30;12.13;;;6.17;;
75766;SDS011;64378;55.596;13.014;2023-04-15T05:54:56;13.30;;;6.40;;
75766;SDS011;64378;55.596;13.014;2023-04-15T05:57:21;11.97;;;6.37;;
75766;SDS011;64378;55.596;13.014;2023-04-15T05:59:47;11.13;;;6.00;;
75766;SDS011;64378;55.596;13.014;2023-04-15T06:02:13;11.15;;;5.80;;
75766;SDS011;64378;55.596;13.014;2023-04-15T06:04:38;10.00;;;5.53;;
75766;SDS011;64378;55.596;13.014;2023-04-15T06:07:04;11.67;;;6.40;;
75766;SDS011;64378;55.596;13.014;2023-04-15T06:09:29;11.32;;;6.28;;
75766;SDS011;64378;55.596;13.014;2023-04-15T06:11:55;11.60;;;5.73;;
75766;SDS011;64378;55.596;13.014;2023-04-15T06:14:21;10.15;;;5.65;;
75766;SDS011;64378;55.596;13.014;2023-04-15T06:16:47;10.00;;;5.53;;
75766;SDS011;64378;55.596;13.014;2023-04-15T06:19:12;9.83;;;5.57;;
75766;SDS011;64378;55.596;13.014;2023-04-15T06:21:38;10.77;;;6.10;;
75766;SDS011;64378;55.596;13.014;2023-04-15T06:24:03;11.67;;;6.13;;
75766;SDS011;64378;55.596;13.014;2023-04-15T06:26:29;11.03;;;6.27;;
75766;SDS011;64378;55.596;13.014;2023-04-15T06:28:55;12.02;;;6.50;;
75766;SDS011;64378;55.596;13.014;2023-04-15T06:31:21;11.40;;;6.97;;
75766;SDS011;64378;55.596;13.014;2023-04-15T06:33:46;12.20;;;6.75;;
75766;SDS011;64378;55.596;13.014;2023-04-15T06:36:12;12.68;;;6.10;;
75766;SDS011;64378;55.596;13.014;2023-04-15T06:38:37;12.60;;;5.80;;
75766;SDS011;64378;55.596;13.014;2023-04-15T06:41:03;10.77;;;6.13;;
75766;SDS011;64378;55.596;13.014;2023-04-15T06:43:28;12.43;;;6.00;;
75766;SDS011;64378;55.596;13.014;2023-04-15T06:45:54;12.70;;;6.20;;
75766;SDS011;64378;55.596;13.014;2023-04-15T06:48:20;13.80;;;7.45;;
75766;SDS011;64378;55.596;13.014;2023-04-15T06:50:46;10.52;;;6.05;;
75766;SDS011;64378;55.596;13.014;2023-04-15T06:53:12;13.23;;;6.53;;
75766;SDS011;64378;55.596;13.014;2023-04-15T06:55:38;13.17;;;6.77;;
75766;SDS011;64378;55.596;13.014;2023-04-15T06:58:04;11.32;;;6.35;;
75766;SDS011;64378;55.596;13.014;2023-04-15T07:00:30;11.90;;;5.87;;
75766;SDS011;64378;55.596;13.014;2023-04-15T07:02:55;12.83;;;6.33;;
75766;SDS011;64378;55.596;13.014;2023-04-15T07:05:21;10.63;;;5.70;;
75766;SDS011;64378;55.596;13.014;2023-04-15T07:07:46;11.80;;;5.60;;
75766;SDS011;64378;55.596;13.014;2023-04-15T07:10:12;11.77;;;6.40;;
75766;SDS011;64378;55.596;13.014;2023-04-15T07:12:38;11.47;;;6.37;;
75766;SDS011;64378;55.596;13.014;2023-04-15T07:15:04;12.15;;;6.32;;
75766;SDS011;64378;55.596;13.014;2023-04-15T07:17:30;12.70;;;6.20;;
75766;SDS011;64378;55.596;13.014;2023-04-15T07:19:56;11.50;;;6.60;;
75766;SDS011;64378;55.596;13.014;2023-04-15T07:22:21;11.57;;;6.10;;
75766;SDS011;64378;55.596;13.014;2023-04-15T07:24:47;12.77;;;6.57;;
75766;SDS011;64378;55.596;13.014;2023-04-15T07:27:12;12.00;;;5.93;;
75766;SDS011;64378;55.596;13.014;2023-04-15T07:29:37;10.23;;;5.50;;
75766;SDS011;64378;55.596;13.014;2023-04-15T07:32:03;11.48;;;6.32;;
75766;SDS011;64378;55.596;13.014;2023-04-15T07:34:28;14.60;;;6.40;;
75766;SDS011;64378;55.596;13.014;2023-04-15T07:36:54;12.10;;;6.10;;
75766;SDS011;64378;55.596;13.014;2023-04-15T07:39:19;11.13;;;5.53;;
75766;SDS011;64378;55.596;13.014;2023-04-15T07:41:45;199.13;;;112.13;;
75766;SDS011;64378;55.596;13.014;2023-04-15T07:44:10;85.15;;;71.28;;
75766;SDS011;64378;55.596;13.014;2023-04-15T07:46:36;53.53;;;48.23;;
75766;SDS011;64378;55.596;13.014;2023-04-15T07:49:02;37.92;;;34.63;;
75766;SDS011;64378;55.596;13.014;2023-04-15T07:51:28;16.93;;;6.70;;
75766;SDS011;64378;55.596;13.014;2023-04-15T07:53:53;15.30;;;7.00;;
75766;SDS011;64378;55.596;13.014;2023-04-15T07:56:19;16.60;;;8.43;;
75766;SDS011;64378;55.596;13.014;2023-04-15T07:58:44;204.00;;;106.30;;
75766;SDS011;64378;55.596;13.014;2023-04-15T08:01:10;89.43;;;70.57;;
75766;SDS011;64378;55.596;13.014;2023-04-15T08:03:35;100.80;;;76.63;;
75766;SDS011;64378;55.596;13.014;2023-04-15T08:06:01;62.27;;;56.07;;
75766;SDS011;64378;55.596;13.014;2023-04-15T08:08:27;60.93;;;54.57;;
